sensor_id;sensor_type;location;lat;lon;timestamp;P1;durP1;ratioP1;P2;durP2;ratioP2
21591;SDS011;10958;50.892;3.992;2023-03-14T00:01:23;6.60;;;1.13;;
21591;SDS011;10958;50.892;3.992;2023-03-14T00:03:49;8.63;;;1.17;;
21591;SDS011;10958;50.892;3.992;2023-03-14T00:06:16;4.78;;;1.23;;
21591;SDS011;10958;50.892;3.992;2023-03-14T00:08:45;7.18;;;1.17;;
21591;SDS011;10958;50.892;3.992;2023-03-14T00:11:13;6.35;;;1.50;;
21591;SDS011;10958;50.892;3.992;2023-03-14T00:13:41;8.68;;;1.30;;
21591;SDS011;10958;50.892;3.992;2023-03-14T00:16:08;8.23;;;1.23;;
21591;SDS011;10958;50.892;3.992;2023-03-14T00:21:02;6.97;;;1.38;;
21591;SDS011;10958;50.892;3.992;2023-03-14T00:23:30;7.30;;;1.40;;
21591;SDS011;10958;50.892;3.992;2023-03-14T00:26:16;8.95;;;1.23;;
21591;SDS011;10958;50.892;3.992;2023-03-14T00:28:43;10.77;;;1.60;;
21591;SDS011;10958;50.892;3.992;2023-03-14T00:31:11;9.07;;;1.50;;
21591;SDS011;10958;50.892;3.992;2023-03-14T00:33:38;8.00;;;1.20;;
21591;SDS011;10958;50.892;3.992;2023-03-14T00:36:05;10.88;;;1.60;;
21591;SDS011;10958;50.892;3.992;2023-03-14T00:38:37;6.15;;;1.92;;
21591;SDS011;10958;50.892;3.992;2023-03-14T00:41:07;13.75;;;1.63;;
21591;SDS011;10958;50.892;3.992;2023-03-14T00:43:35;9.75;;;1.40;;
21591;SDS011;10958;50.892;3.992;2023-03-14T00:46:01;9.18;;;1.45;;
21591;SDS011;10958;50.892;3.992;2023-03-14T00:48:27;6.68;;;1.70;;
21591;SDS011;10958;50.892;3.992;2023-03-14T00:50:53;13.98;;;1.85;;
21591;SDS011;10958;50.892;3.992;2023-03-14T00:53:21;8.90;;;1.10;;
21591;SDS011;10958;50.892;3.992;2023-03-14T00:55:47;9.98;;;1.63;;
21591;SDS011;10958;50.892;3.992;2023-03-14T00:58:14;8.80;;;1.67;;
21591;SDS011;10958;50.892;3.992;2023-03-14T01:00:41;5.93;;;1.20;;
21591;SDS011;10958;50.892;3.992;2023-03-14T01:03:07;7.65;;;1.70;;
21591;SDS011;10958;50.892;3.992;2023-03-14T01:05:34;7.18;;;1.35;;
21591;SDS011;10958;50.892;3.992;2023-03-14T01:08:03;10.38;;;1.88;;
21591;SDS011;10958;50.892;3.992;2023-03-14T01:10:30;9.82;;;1.48;;
21591;SDS011;10958;50.892;3.992;2023-03-14T01:12:56;11.32;;;1.45;;
21591;SDS011;10958;50.892;3.992;2023-03-14T01:15:21;7.43;;;1.65;;
21591;SDS011;10958;50.892;3.992;2023-03-14T01:17:47;7.32;;;1.48;;
21591;SDS011;10958;50.892;3.992;2023-03-14T01:20:13;6.57;;;1.30;;
21591;SDS011;10958;50.892;3.992;2023-03-14T01:22:40;9.07;;;1.50;;
21591;SDS011;10958;50.892;3.992;2023-03-14T01:25:08;11.70;;;1.58;;
21591;SDS011;10958;50.892;3.992;2023-03-14T01:27:35;9.75;;;1.55;;
21591;SDS011;10958;50.892;3.992;2023-03-14T01:30:02;7.30;;;1.55;;
21591;SDS011;10958;50.892;3.992;2023-03-14T01:32:31;10.63;;;1.38;;
21591;SDS011;10958;50.892;3.992;2023-03-14T01:34:57;9.75;;;1.60;;
21591;SDS011;10958;50.892;3.992;2023-03-14T01:37:23;6.88;;;1.27;;
21591;SDS011;10958;50.892;3.992;2023-03-14T01:39:49;10.20;;;2.00;;
21591;SDS011;10958;50.892;3.992;2023-03-14T01:42:15;11.40;;;1.50;;
21591;SDS011;10958;50.892;3.992;2023-03-14T01:44:51;7.38;;;1.30;;
21591;SDS011;10958;50.892;3.992;2023-03-14T01:47:27;11.30;;;1.60;;
21591;SDS011;10958;50.892;3.992;2023-03-14T01:49:54;7.35;;;1.23;;
21591;SDS011;10958;50.892;3.992;2023-03-14T01:52:27;8.73;;;1.35;;
21591;SDS011;10958;50.892;3.992;2023-03-14T01:55:20;4.30;;;1.00;;
21591;SDS011;10958;50.892;3.992;2023-03-14T01:57:53;7.05;;;0.98;;
21591;SDS011;10958;50.892;3.992;2023-03-14T02:00:23;6.97;;;1.70;;
21591;SDS011;10958;50.892;3.992;2023-03-14T02:02:58;6.45;;;1.50;;
21591;SDS011;10958;50.892;3.992;2023-03-14T02:05:28;6.22;;;0.90;;
21591;SDS011;10958;50.892;3.992;2023-03-14T02:08:00;4.47;;;0.98;;
21591;SDS011;10958;50.892;3.992;2023-03-14T02:10:30;4.85;;;0.88;;
21591;SDS011;10958;50.892;3.992;2023-03-14T02:13:01;5.10;;;1.20;;
21591;SDS011;10958;50.892;3.992;2023-03-14T02:15:31;5.90;;;1.02;;
21591;SDS011;10958;50.892;3.992;2023-03-14T02:17:58;3.22;;;0.80;;
21591;SDS011;10958;50.892;3.992;2023-03-14T02:23:01;5.55;;;0.70;;
21591;SDS011;10958;50.892;3.992;2023-03-14T02:28:03;6.78;;;1.00;;
21591;SDS011;10958;50.892;3.992;2023-03-14T02:30:29;6.25;;;0.90;;
21591;SDS011;10958;50.892;3.992;2023-03-14T02:33:04;4.80;;;0.80;;
21591;SDS011;10958;50.892;3.992;2023-03-14T02:35:34;9.68;;;1.40;;
21591;SDS011;10958;50.892;3.992;2023-03-14T02:40:36;11.05;;;1.50;;
21591;SDS011;10958;50.892;3.992;2023-03-14T02:43:02;4.68;;;1.13;;
21591;SDS011;10958;50.892;3.992;2023-03-14T02:45:32;5.10;;;1.50;;
21591;SDS011;10958;50.892;3.992;2023-03-14T02:48:07;6.70;;;1.60;;
21591;SDS011;10958;50.892;3.992;2023-03-14T02:50:36;10.52;;;2.28;;
21591;SDS011;10958;50.892;3.992;2023-03-14T02:53:03;7.72;;;2.00;;
21591;SDS011;10958;50.892;3.992;2023-03-14T02:55:31;10.80;;;2.22;;
21591;SDS011;10958;50.892;3.992;2023-03-14T02:57:57;7.38;;;1.88;;
21591;SDS011;10958;50.892;3.992;2023-03-14T03:00:23;11.57;;;2.00;;
21591;SDS011;10958;50.892;3.992;2023-03-14T03:02:49;12.63;;;2.30;;
21591;SDS011;10958;50.892;3.992;2023-03-14T03:05:15;7.45;;;2.05;;
21591;SDS011;10958;50.892;3.992;2023-03-14T03:07:41;11.43;;;2.10;;
21591;SDS011;10958;50.892;3.992;2023-03-14T03:10:07;9.02;;;2.00;;
21591;SDS011;10958;50.892;3.992;2023-03-14T03:12:33;15.27;;;2.28;;
21591;SDS011;10958;50.892;3.992;2023-03-14T03:14:59;10.15;;;2.05;;
21591;SDS011;10958;50.892;3.992;2023-03-14T03:17:26;7.65;;;1.85;;
21591;SDS011;10958;50.892;3.992;2023-03-14T03:19:51;8.20;;;2.30;;
21591;SDS011;10958;50.892;3.992;2023-03-14T03:22:17;10.02;;;2.42;;
21591;SDS011;10958;50.892;3.992;2023-03-14T03:24:43;8.25;;;2.10;;
21591;SDS011;10958;50.892;3.992;2023-03-14T03:27:09;11.68;;;2.53;;
21591;SDS011;10958;50.892;3.992;2023-03-14T03:29:35;7.07;;;1.80;;
21591;SDS011;10958;50.892;3.992;2023-03-14T03:32:00;12.48;;;2.92;;
21591;SDS011;10958;50.892;3.992;2023-03-14T03:34:27;13.30;;;2.92;;
21591;SDS011;10958;50.892;3.992;2023-03-14T03:36:55;14.10;;;2.63;;
21591;SDS011;10958;50.892;3.992;2023-03-14T03:39:21;11.18;;;2.47;;
21591;SDS011;10958;50.892;3.992;2023-03-14T03:41:47;8.73;;;2.97;;
21591;SDS011;10958;50.892;3.992;2023-03-14T03:44:13;8.52;;;2.58;;
21591;SDS011;10958;50.892;3.992;2023-03-14T03:46:39;7.82;;;2.47;;
21591;SDS011;10958;50.892;3.992;2023-03-14T03:49:05;11.07;;;2.88;;
21591;SDS011;10958;50.892;3.992;2023-03-14T03:51:30;7.18;;;2.22;;
21591;SDS011;10958;50.892;3.992;2023-03-14T03:53:56;7.25;;;2.30;;
21591;SDS011;10958;50.892;3.992;2023-03-14T03:56:22;13.30;;;2.75;;
21591;SDS011;10958;50.892;3.992;2023-03-14T03:58:48;10.98;;;2.75;;
21591;SDS011;10958;50.892;3.992;2023-03-14T04:01:13;6.18;;;2.25;;
21591;SDS011;10958;50.892;3.992;2023-03-14T04:03:39;8.75;;;2.20;;
21591;SDS011;10958;50.892;3.992;2023-03-14T04:06:06;7.72;;;2.45;;
21591;SDS011;10958;50.892;3.992;2023-03-14T04:08:37;9.27;;;2.42;;
21591;SDS011;10958;50.892;3.992;2023-03-14T04:11:04;9.80;;;2.60;;
21591;SDS011;10958;50.892;3.992;2023-03-14T04:13:30;9.55;;;2.15;;
21591;SDS011;10958;50.892;3.992;2023-03-14T04:15:55;5.78;;;2.33;;
21591;SDS011;10958;50.892;3.992;2023-03-14T04:18:22;7.13;;;2.25;;
21591;SDS011;10958;50.892;3.992;2023-03-14T04:20:52;7.07;;;2.05;;
21591;SDS011;10958;50.892;3.992;2023-03-14T04:23:24;7.88;;;2.30;;
21591;SDS011;10958;50.892;3.992;2023-03-14T04:25:51;7.55;;;2.50;;
21591;SDS011;10958;50.892;3.992;2023-03-14T04:28:17;6.20;;;2.05;;
21591;SDS011;10958;50.892;3.992;2023-03-14T04:30:43;11.55;;;2.15;;
21591;SDS011;10958;50.892;3.992;2023-03-14T04:33:09;6.45;;;2.40;;
21591;SDS011;10958;50.892;3.992;2023-03-14T04:35:35;8.90;;;2.70;;
21591;SDS011;10958;50.892;3.992;2023-03-14T04:38:04;4.95;;;1.75;;
21591;SDS011;10958;50.892;3.992;2023-03-14T04:40:31;7.75;;;2.25;;
21591;SDS011;10958;50.892;3.992;2023-03-14T04:42:57;8.32;;;2.50;;
21591;SDS011;10958;50.892;3.992;2023-03-14T04:45:23;5.78;;;2.50;;
21591;SDS011;10958;50.892;3.992;2023-03-14T04:47:48;6.13;;;2.35;;
21591;SDS011;10958;50.892;3.992;2023-03-14T04:50:14;8.00;;;2.72;;
21591;SDS011;10958;50.892;3.992;2023-03-14T04:52:40;5.55;;;2.78;;
21591;SDS011;10958;50.892;3.992;2023-03-14T04:55:05;8.25;;;2.33;;
21591;SDS011;10958;50.892;3.992;2023-03-14T04:57:31;6.68;;;2.50;;
21591;SDS011;10958;50.892;3.992;2023-03-14T04:59:57;9.95;;;3.13;;
21591;SDS011;10958;50.892;3.992;2023-03-14T05:02:22;6.95;;;2.92;;
21591;SDS011;10958;50.892;3.992;2023-03-14T05:04:48;7.10;;;2.72;;
21591;SDS011;10958;50.892;3.992;2023-03-14T05:07:14;8.60;;;2.97;;
21591;SDS011;10958;50.892;3.992;2023-03-14T05:09:40;9.00;;;3.25;;
21591;SDS011;10958;50.892;3.992;2023-03-14T05:12:05;7.30;;;3.60;;
21591;SDS011;10958;50.892;3.992;2023-03-14T05:14:33;9.10;;;3.15;;
21591;SDS011;10958;50.892;3.992;2023-03-14T05:16:59;6.40;;;2.97;;
21591;SDS011;10958;50.892;3.992;2023-03-14T05:19:25;7.53;;;3.00;;
21591;SDS011;10958;50.892;3.992;2023-03-14T05:21:50;7.35;;;3.47;;
21591;SDS011;10958;50.892;3.992;2023-03-14T05:24:16;8.32;;;3.38;;
21591;SDS011;10958;50.892;3.992;2023-03-14T05:26:42;7.13;;;3.40;;
21591;SDS011;10958;50.892;3.992;2023-03-14T05:29:07;5.25;;;2.97;;
21591;SDS011;10958;50.892;3.992;2023-03-14T05:31:33;7.85;;;3.33;;
21591;SDS011;10958;50.892;3.992;2023-03-14T05:33:58;5.22;;;3.38;;
21591;SDS011;10958;50.892;3.992;2023-03-14T05:36:24;5.60;;;3.20;;
21591;SDS011;10958;50.892;3.992;2023-03-14T05:38:50;5.32;;;2.95;;
21591;SDS011;10958;50.892;3.992;2023-03-14T05:41:16;5.53;;;2.85;;
21591;SDS011;10958;50.892;3.992;2023-03-14T05:43:41;3.78;;;2.65;;
21591;SDS011;10958;50.892;3.992;2023-03-14T05:46:12;5.35;;;2.50;;
21591;SDS011;10958;50.892;3.992;2023-03-14T05:48:38;4.30;;;2.50;;
21591;SDS011;10958;50.892;3.992;2023-03-14T05:51:04;3.45;;;1.75;;
21591;SDS011;10958;50.892;3.992;2023-03-14T05:53:30;3.65;;;1.70;;
21591;SDS011;10958;50.892;3.992;2023-03-14T05:55:55;5.75;;;2.47;;
21591;SDS011;10958;50.892;3.992;2023-03-14T05:58:22;5.25;;;1.73;;
21591;SDS011;10958;50.892;3.992;2023-03-14T06:00:48;1.88;;;1.55;;
21591;SDS011;10958;50.892;3.992;2023-03-14T06:03:17;3.03;;;1.75;;
21591;SDS011;10958;50.892;3.992;2023-03-14T06:05:43;2.38;;;1.60;;
21591;SDS011;10958;50.892;3.992;2023-03-14T06:08:09;3.42;;;1.67;;
21591;SDS011;10958;50.892;3.992;2023-03-14T06:10:35;1.30;;;1.20;;
21591;SDS011;10958;50.892;3.992;2023-03-14T06:13:04;2.70;;;1.50;;
21591;SDS011;10958;50.892;3.992;2023-03-14T06:15:33;1.47;;;1.27;;
21591;SDS011;10958;50.892;3.992;2023-03-14T06:18:00;4.97;;;1.55;;
21591;SDS011;10958;50.892;3.992;2023-03-14T06:20:25;4.93;;;1.83;;
21591;SDS011;10958;50.892;3.992;2023-03-14T06:22:51;3.05;;;1.70;;
21591;SDS011;10958;50.892;3.992;2023-03-14T06:25:20;4.78;;;1.80;;
21591;SDS011;10958;50.892;3.992;2023-03-14T06:27:45;3.88;;;1.83;;
21591;SDS011;10958;50.892;3.992;2023-03-14T06:30:11;6.32;;;2.03;;
21591;SDS011;10958;50.892;3.992;2023-03-14T06:32:39;5.53;;;2.15;;
21591;SDS011;10958;50.892;3.992;2023-03-14T06:35:05;6.88;;;2.30;;
21591;SDS011;10958;50.892;3.992;2023-03-14T06:37:31;5.40;;;2.60;;
21591;SDS011;10958;50.892;3.992;2023-03-14T06:39:57;4.55;;;2.30;;
21591;SDS011;10958;50.892;3.992;2023-03-14T06:42:26;6.60;;;3.80;;
21591;SDS011;10958;50.892;3.992;2023-03-14T06:44:52;4.00;;;2.40;;
21591;SDS011;10958;50.892;3.992;2023-03-14T06:47:20;4.55;;;1.90;;
21591;SDS011;10958;50.892;3.992;2023-03-14T06:49:46;3.17;;;1.63;;
21591;SDS011;10958;50.892;3.992;2023-03-14T06:52:12;2.20;;;1.50;;
21591;SDS011;10958;50.892;3.992;2023-03-14T06:54:38;3.95;;;1.95;;
21591;SDS011;10958;50.892;3.992;2023-03-14T06:57:04;5.53;;;1.65;;
21591;SDS011;10958;50.892;3.992;2023-03-14T06:59:30;6.03;;;1.58;;
21591;SDS011;10958;50.892;3.992;2023-03-14T07:01:55;2.65;;;1.58;;
21591;SDS011;10958;50.892;3.992;2023-03-14T07:04:21;2.70;;;1.65;;
21591;SDS011;10958;50.892;3.992;2023-03-14T07:06:46;5.13;;;1.70;;
21591;SDS011;10958;50.892;3.992;2023-03-14T07:09:12;3.58;;;1.98;;
21591;SDS011;10958;50.892;3.992;2023-03-14T07:11:43;5.43;;;1.88;;
21591;SDS011;10958;50.892;3.992;2023-03-14T07:14:09;5.80;;;2.53;;
21591;SDS011;10958;50.892;3.992;2023-03-14T07:16:35;4.18;;;2.47;;
21591;SDS011;10958;50.892;3.992;2023-03-14T07:19:00;5.50;;;2.42;;
21591;SDS011;10958;50.892;3.992;2023-03-14T07:21:27;4.55;;;2.50;;
21591;SDS011;10958;50.892;3.992;2023-03-14T07:23:52;5.93;;;2.72;;
21591;SDS011;10958;50.892;3.992;2023-03-14T07:26:21;7.30;;;3.25;;
21591;SDS011;10958;50.892;3.992;2023-03-14T07:28:46;9.90;;;2.83;;
21591;SDS011;10958;50.892;3.992;2023-03-14T07:31:17;4.43;;;2.85;;
21591;SDS011;10958;50.892;3.992;2023-03-14T07:33:42;6.88;;;3.33;;
21591;SDS011;10958;50.892;3.992;2023-03-14T07:36:08;4.85;;;3.15;;
21591;SDS011;10958;50.892;3.992;2023-03-14T07:38:34;8.10;;;3.10;;
21591;SDS011;10958;50.892;3.992;2023-03-14T07:41:04;7.25;;;3.10;;
21591;SDS011;10958;50.892;3.992;2023-03-14T07:43:31;7.43;;;3.40;;
21591;SDS011;10958;50.892;3.992;2023-03-14T07:45:57;5.47;;;3.20;;
21591;SDS011;10958;50.892;3.992;2023-03-14T07:48:23;7.85;;;3.42;;
21591;SDS011;10958;50.892;3.992;2023-03-14T07:50:52;7.57;;;3.50;;
21591;SDS011;10958;50.892;3.992;2023-03-14T07:53:19;6.47;;;2.85;;
21591;SDS011;10958;50.892;3.992;2023-03-14T07:55:45;3.88;;;2.08;;
21591;SDS011;10958;50.892;3.992;2023-03-14T07:58:12;3.03;;;2.10;;
21591;SDS011;10958;50.892;3.992;2023-03-14T08:00:38;3.30;;;1.90;;
21591;SDS011;10958;50.892;3.992;2023-03-14T08:03:04;6.78;;;2.47;;
21591;SDS011;10958;50.892;3.992;2023-03-14T08:05:33;8.55;;;2.90;;
21591;SDS011;10958;50.892;3.992;2023-03-14T08:08:00;6.30;;;2.25;;
21591;SDS011;10958;50.892;3.992;2023-03-14T08:10:28;7.88;;;2.40;;
21591;SDS011;10958;50.892;3.992;2023-03-14T08:12:55;9.57;;;2.33;;
21591;SDS011;10958;50.892;3.992;2023-03-14T08:15:22;12.23;;;2.67;;
21591;SDS011;10958;50.892;3.992;2023-03-14T08:17:49;12.15;;;2.75;;
21591;SDS011;10958;50.892;3.992;2023-03-14T08:20:19;9.60;;;2.67;;
21591;SDS011;10958;50.892;3.992;2023-03-14T08:22:47;9.13;;;2.50;;
21591;SDS011;10958;50.892;3.992;2023-03-14T08:25:13;9.57;;;3.40;;
21591;SDS011;10958;50.892;3.992;2023-03-14T08:27:39;8.70;;;2.90;;
21591;SDS011;10958;50.892;3.992;2023-03-14T08:30:07;6.55;;;2.60;;
21591;SDS011;10958;50.892;3.992;2023-03-14T08:32:35;10.00;;;3.00;;
21591;SDS011;10958;50.892;3.992;2023-03-14T08:35:01;9.75;;;2.80;;
21591;SDS011;10958;50.892;3.992;2023-03-14T08:37:27;8.30;;;2.80;;
21591;SDS011;10958;50.892;3.992;2023-03-14T08:39:53;11.57;;;1.95;;
21591;SDS011;10958;50.892;3.992;2023-03-14T08:42:19;8.85;;;2.08;;
21591;SDS011;10958;50.892;3.992;2023-03-14T08:44:45;9.43;;;2.13;;
21591;SDS011;10958;50.892;3.992;2023-03-14T08:47:11;6.00;;;2.50;;
21591;SDS011;10958;50.892;3.992;2023-03-14T08:49:36;11.48;;;2.78;;
21591;SDS011;10958;50.892;3.992;2023-03-14T08:52:03;11.15;;;2.67;;
21591;SDS011;10958;50.892;3.992;2023-03-14T08:54:30;5.00;;;1.63;;
21591;SDS011;10958;50.892;3.992;2023-03-14T08:56:56;8.75;;;2.50;;
21591;SDS011;10958;50.892;3.992;2023-03-14T08:59:22;10.70;;;2.30;;
21591;SDS011;10958;50.892;3.992;2023-03-14T09:01:48;10.00;;;2.30;;
21591;SDS011;10958;50.892;3.992;2023-03-14T09:04:14;10.10;;;2.20;;
21591;SDS011;10958;50.892;3.992;2023-03-14T09:06:42;9.98;;;2.13;;
21591;SDS011;10958;50.892;3.992;2023-03-14T09:09:10;13.82;;;2.42;;
21591;SDS011;10958;50.892;3.992;2023-03-14T09:11:38;10.80;;;2.33;;
21591;SDS011;10958;50.892;3.992;2023-03-14T09:14:04;14.77;;;2.45;;
21591;SDS011;10958;50.892;3.992;2023-03-14T09:16:30;8.10;;;1.70;;
21591;SDS011;10958;50.892;3.992;2023-03-14T09:18:56;6.60;;;1.42;;
21591;SDS011;10958;50.892;3.992;2023-03-14T09:21:24;6.72;;;1.75;;
21591;SDS011;10958;50.892;3.992;2023-03-14T09:23:51;10.80;;;1.90;;
21591;SDS011;10958;50.892;3.992;2023-03-14T09:26:16;6.78;;;1.65;;
21591;SDS011;10958;50.892;3.992;2023-03-14T09:28:43;5.60;;;1.52;;
21591;SDS011;10958;50.892;3.992;2023-03-14T09:31:09;8.85;;;1.88;;
21591;SDS011;10958;50.892;3.992;2023-03-14T09:33:36;5.50;;;1.63;;
21591;SDS011;10958;50.892;3.992;2023-03-14T09:36:03;8.25;;;1.80;;
21591;SDS011;10958;50.892;3.992;2023-03-14T09:38:29;7.97;;;2.35;;
21591;SDS011;10958;50.892;3.992;2023-03-14T09:40:59;9.40;;;1.55;;
21591;SDS011;10958;50.892;3.992;2023-03-14T09:43:26;9.73;;;1.60;;
21591;SDS011;10958;50.892;3.992;2023-03-14T09:45:55;10.93;;;1.92;;
21591;SDS011;10958;50.892;3.992;2023-03-14T09:48:24;8.57;;;1.58;;
21591;SDS011;10958;50.892;3.992;2023-03-14T09:50:56;6.93;;;2.15;;
21591;SDS011;10958;50.892;3.992;2023-03-14T09:53:26;9.75;;;1.85;;
21591;SDS011;10958;50.892;3.992;2023-03-14T09:58:21;5.43;;;1.48;;
21591;SDS011;10958;50.892;3.992;2023-03-14T10:00:49;7.75;;;1.38;;
21591;SDS011;10958;50.892;3.992;2023-03-14T10:03:51;14.43;;;1.67;;
21591;SDS011;10958;50.892;3.992;2023-03-14T10:06:12;5.57;;;1.80;;
21591;SDS011;10958;50.892;3.992;2023-03-14T10:08:40;6.65;;;1.35;;
21591;SDS011;10958;50.892;3.992;2023-03-14T10:11:09;5.53;;;1.10;;
21591;SDS011;10958;50.892;3.992;2023-03-14T10:16:30;6.13;;;1.60;;
21591;SDS011;10958;50.892;3.992;2023-03-14T10:19:06;6.25;;;1.65;;
21591;SDS011;10958;50.892;3.992;2023-03-14T10:21:36;8.68;;;1.33;;
21591;SDS011;10958;50.892;3.992;2023-03-14T10:26:43;6.93;;;1.45;;
21591;SDS011;10958;50.892;3.992;2023-03-14T10:29:15;6.28;;;1.73;;
21591;SDS011;10958;50.892;3.992;2023-03-14T10:31:51;10.95;;;1.75;;
21591;SDS011;10958;50.892;3.992;2023-03-14T10:34:28;9.45;;;1.30;;
21591;SDS011;10958;50.892;3.992;2023-03-14T10:36:57;7.13;;;1.95;;
21591;SDS011;10958;50.892;3.992;2023-03-14T10:40:15;4.65;;;1.77;;
21591;SDS011;10958;50.892;3.992;2023-03-14T10:42:22;8.25;;;1.75;;
21591;SDS011;10958;50.892;3.992;2023-03-14T10:44:55;6.13;;;1.20;;
21591;SDS011;10958;50.892;3.992;2023-03-14T10:47:23;8.68;;;1.20;;
21591;SDS011;10958;50.892;3.992;2023-03-14T10:49:51;4.30;;;0.82;;
21591;SDS011;10958;50.892;3.992;2023-03-14T10:52:21;5.50;;;0.98;;
21591;SDS011;10958;50.892;3.992;2023-03-14T10:54:56;5.40;;;1.13;;
21591;SDS011;10958;50.892;3.992;2023-03-14T10:57:27;2.78;;;1.23;;
21591;SDS011;10958;50.892;3.992;2023-03-14T10:59:53;2.63;;;0.90;;
21591;SDS011;10958;50.892;3.992;2023-03-14T11:03:36;2.40;;;0.70;;
21591;SDS011;10958;50.892;3.992;2023-03-14T11:06:08;4.38;;;0.77;;
21591;SDS011;10958;50.892;3.992;2023-03-14T11:11:50;3.58;;;0.80;;
21591;SDS011;10958;50.892;3.992;2023-03-14T11:14:18;7.22;;;1.00;;
21591;SDS011;10958;50.892;3.992;2023-03-14T11:22:32;2.10;;;0.52;;
21591;SDS011;10958;50.892;3.992;2023-03-14T11:25:07;2.55;;;0.73;;
21591;SDS011;10958;50.892;3.992;2023-03-14T11:27:48;2.20;;;0.82;;
21591;SDS011;10958;50.892;3.992;2023-03-14T11:35:25;4.13;;;0.85;;
21591;SDS011;10958;50.892;3.992;2023-03-14T11:40:29;2.88;;;0.80;;
21591;SDS011;10958;50.892;3.992;2023-03-14T11:45:35;2.22;;;0.63;;
21591;SDS011;10958;50.892;3.992;2023-03-14T11:51:14;3.28;;;0.80;;
21591;SDS011;10958;50.892;3.992;2023-03-14T11:56:54;2.15;;;0.85;;
21591;SDS011;10958;50.892;3.992;2023-03-14T12:02:14;4.28;;;1.30;;
21591;SDS011;10958;50.892;3.992;2023-03-14T12:07:34;2.33;;;1.08;;
21591;SDS011;10958;50.892;3.992;2023-03-14T12:10:29;4.93;;;1.23;;
21591;SDS011;10958;50.892;3.992;2023-03-14T12:12:55;1.52;;;0.93;;
21591;SDS011;10958;50.892;3.992;2023-03-14T12:15:22;3.60;;;1.50;;
21591;SDS011;10958;50.892;3.992;2023-03-14T12:17:56;4.60;;;1.33;;
21591;SDS011;10958;50.892;3.992;2023-03-14T12:20:25;1.42;;;1.00;;
21591;SDS011;10958;50.892;3.992;2023-03-14T12:22:53;5.22;;;1.20;;
21591;SDS011;10958;50.892;3.992;2023-03-14T12:25:27;2.78;;;1.67;;
21591;SDS011;10958;50.892;3.992;2023-03-14T12:28:32;4.90;;;2.33;;
21591;SDS011;10958;50.892;3.992;2023-03-14T12:31:30;4.82;;;1.30;;
21591;SDS011;10958;50.892;3.992;2023-03-14T12:39:37;6.25;;;1.00;;
21591;SDS011;10958;50.892;3.992;2023-03-14T12:42:37;4.82;;;0.90;;
21591;SDS011;10958;50.892;3.992;2023-03-14T12:47:49;5.00;;;1.42;;
21591;SDS011;10958;50.892;3.992;2023-03-14T12:50:24;3.30;;;1.20;;
21591;SDS011;10958;50.892;3.992;2023-03-14T12:58:38;15.13;;;2.50;;
21591;SDS011;10958;50.892;3.992;2023-03-14T13:01:23;11.38;;;1.70;;
21591;SDS011;10958;50.892;3.992;2023-03-14T13:04:00;9.95;;;2.10;;
21591;SDS011;10958;50.892;3.992;2023-03-14T13:06:46;9.73;;;2.45;;
21591;SDS011;10958;50.892;3.992;2023-03-14T13:10:13;15.95;;;2.20;;
21591;SDS011;10958;50.892;3.992;2023-03-14T13:12:25;8.68;;;1.90;;
21591;SDS011;10958;50.892;3.992;2023-03-14T13:14:57;10.40;;;2.13;;
21591;SDS011;10958;50.892;3.992;2023-03-14T13:17:34;13.88;;;2.28;;
21591;SDS011;10958;50.892;3.992;2023-03-14T13:20:01;10.20;;;3.92;;
21591;SDS011;10958;50.892;3.992;2023-03-14T13:22:38;15.43;;;3.35;;
21591;SDS011;10958;50.892;3.992;2023-03-14T13:25:07;15.40;;;2.90;;
21591;SDS011;10958;50.892;3.992;2023-03-14T13:27:37;12.05;;;2.58;;
21591;SDS011;10958;50.892;3.992;2023-03-14T13:30:12;19.52;;;2.83;;
21591;SDS011;10958;50.892;3.992;2023-03-14T13:32:40;15.23;;;2.88;;
21591;SDS011;10958;50.892;3.992;2023-03-14T13:35:23;11.60;;;2.85;;
21591;SDS011;10958;50.892;3.992;2023-03-14T13:37:57;13.18;;;1.95;;
21591;SDS011;10958;50.892;3.992;2023-03-14T13:40:29;16.40;;;3.17;;
21591;SDS011;10958;50.892;3.992;2023-03-14T13:43:16;16.33;;;3.53;;
21591;SDS011;10958;50.892;3.992;2023-03-14T13:48:16;16.23;;;3.20;;
21591;SDS011;10958;50.892;3.992;2023-03-14T13:50:49;12.43;;;2.45;;
21591;SDS011;10958;50.892;3.992;2023-03-14T13:53:43;18.15;;;2.55;;
21591;SDS011;10958;50.892;3.992;2023-03-14T13:56:10;16.98;;;2.78;;
21591;SDS011;10958;50.892;3.992;2023-03-14T13:58:37;16.58;;;2.63;;
21591;SDS011;10958;50.892;3.992;2023-03-14T14:03:42;10.43;;;2.55;;
21591;SDS011;10958;50.892;3.992;2023-03-14T14:06:32;10.17;;;2.37;;
21591;SDS011;10958;50.892;3.992;2023-03-14T14:08:58;14.95;;;2.70;;
21591;SDS011;10958;50.892;3.992;2023-03-14T14:14:19;12.48;;;2.13;;
21591;SDS011;10958;50.892;3.992;2023-03-14T14:17:16;19.00;;;3.17;;
21591;SDS011;10958;50.892;3.992;2023-03-14T14:19:44;14.18;;;3.30;;
21591;SDS011;10958;50.892;3.992;2023-03-14T14:22:11;13.55;;;2.30;;
21591;SDS011;10958;50.892;3.992;2023-03-14T14:24:40;13.95;;;2.10;;
21591;SDS011;10958;50.892;3.992;2023-03-14T14:27:16;9.32;;;2.60;;
21591;SDS011;10958;50.892;3.992;2023-03-14T14:30:06;14.15;;;2.20;;
21591;SDS011;10958;50.892;3.992;2023-03-14T14:32:41;8.20;;;1.75;;
21591;SDS011;10958;50.892;3.992;2023-03-14T14:35:08;6.80;;;2.25;;
21591;SDS011;10958;50.892;3.992;2023-03-14T14:37:46;10.55;;;2.20;;
21591;SDS011;10958;50.892;3.992;2023-03-14T14:40:21;7.35;;;2.05;;
21591;SDS011;10958;50.892;3.992;2023-03-14T14:42:48;16.38;;;4.20;;
21591;SDS011;10958;50.892;3.992;2023-03-14T14:45:22;8.93;;;3.10;;
21591;SDS011;10958;50.892;3.992;2023-03-14T14:52:59;9.15;;;2.90;;
21591;SDS011;10958;50.892;3.992;2023-03-14T14:55:39;6.50;;;1.48;;
21591;SDS011;10958;50.892;3.992;2023-03-14T14:58:16;5.47;;;1.60;;
21591;SDS011;10958;50.892;3.992;2023-03-14T15:01:16;5.93;;;1.70;;
21591;SDS011;10958;50.892;3.992;2023-03-14T15:03:45;3.08;;;1.25;;
21591;SDS011;10958;50.892;3.992;2023-03-14T15:06:14;5.93;;;2.38;;
21591;SDS011;10958;50.892;3.992;2023-03-14T15:08:42;3.22;;;1.70;;
21591;SDS011;10958;50.892;3.992;2023-03-14T15:11:11;3.03;;;1.58;;
21591;SDS011;10958;50.892;3.992;2023-03-14T15:13:42;4.80;;;1.65;;
21591;SDS011;10958;50.892;3.992;2023-03-14T15:16:16;4.32;;;1.77;;
21591;SDS011;10958;50.892;3.992;2023-03-14T15:18:43;3.80;;;1.77;;
21591;SDS011;10958;50.892;3.992;2023-03-14T15:21:13;7.82;;;3.53;;
21591;SDS011;10958;50.892;3.992;2023-03-14T15:23:41;5.97;;;1.92;;
21591;SDS011;10958;50.892;3.992;2023-03-14T15:26:11;9.25;;;2.92;;
21591;SDS011;10958;50.892;3.992;2023-03-14T15:28:40;10.13;;;2.60;;
21591;SDS011;10958;50.892;3.992;2023-03-14T15:31:10;8.18;;;2.20;;
21591;SDS011;10958;50.892;3.992;2023-03-14T15:33:39;9.38;;;5.00;;
21591;SDS011;10958;50.892;3.992;2023-03-14T15:36:22;14.07;;;4.63;;
21591;SDS011;10958;50.892;3.992;2023-03-14T15:38:51;8.50;;;3.85;;
21591;SDS011;10958;50.892;3.992;2023-03-14T15:41:20;11.40;;;5.38;;
21591;SDS011;10958;50.892;3.992;2023-03-14T15:43:47;13.55;;;5.90;;
21591;SDS011;10958;50.892;3.992;2023-03-14T15:46:14;14.98;;;5.78;;
21591;SDS011;10958;50.892;3.992;2023-03-14T15:48:43;9.40;;;3.90;;
21591;SDS011;10958;50.892;3.992;2023-03-14T15:51:10;7.50;;;2.28;;
21591;SDS011;10958;50.892;3.992;2023-03-14T15:53:36;4.78;;;1.83;;
21591;SDS011;10958;50.892;3.992;2023-03-14T15:56:05;3.83;;;0.88;;
21591;SDS011;10958;50.892;3.992;2023-03-14T15:58:32;3.90;;;1.20;;
21591;SDS011;10958;50.892;3.992;2023-03-14T16:00:59;4.80;;;1.30;;
21591;SDS011;10958;50.892;3.992;2023-03-14T16:03:27;7.20;;;1.13;;
21591;SDS011;10958;50.892;3.992;2023-03-14T16:05:53;10.30;;;1.50;;
21591;SDS011;10958;50.892;3.992;2023-03-14T16:08:20;5.93;;;1.33;;
21591;SDS011;10958;50.892;3.992;2023-03-14T16:10:46;11.77;;;2.10;;
21591;SDS011;10958;50.892;3.992;2023-03-14T16:13:12;10.02;;;2.10;;
21591;SDS011;10958;50.892;3.992;2023-03-14T16:15:38;9.90;;;2.78;;